Flag for Sweden

Past Weather in 59°20'59.9"N, 16°29'11.2"E, Sweden — Yesterday and Last 2 Weeks

Currently: 36 °F. Partly sunny. (Weather station: Vasteras / Hasslo, Sweden). See more current weather

Past Weather in 59°20'59.9"N, 16°29'11.2"E — Graph

°F

59°20'59.9"N, 16°29'11.2"E Temperature Yesterday

Maximum temperature yesterday: 37 °F (at 11:50 am)
Minimum temperature yesterday: 30 °F (at 12:20 am)
Average temperature yesterday: 35 °F

High & Low Weather Summary for the Past Weeks

 TemperatureHumidityPressure
High55 °F (Nov 18, 2:20 pm)100% (Nov 24, 10:50 pm)30.45 "Hg (Nov 24, 10:50 pm)
Low25 °F (Nov 27, 11:50 pm)49% (Nov 23, 12:20 pm)29.09 "Hg (Nov 19, 7:50 am)
Average38 °F82%29.91 "Hg
* Reported Nov 18 2:20 pm — Dec 3 2:20 pm, 59°20'59.9"N, 16°29'11.2"E. Weather by CustomWeather, © 2020

Note: Actual official high and low records may vary slightly from our data, if they occured in-between our weather recording intervals... More about our weather records

59°20'59.9"N, 16°29'11.2"E Weather History for the Previous 24 Hours

Scroll right to see more
 ConditionsComfort  
Time TempWeatherWind HumidityBarometerVisibility
2:20 pm
Thu, Dec 3
36 °FPartly sunny.9 mph81%29.83 "HgN/A
1:50 pm36 °FPartly sunny.9 mph81%29.83 "HgN/A
1:20 pm36 °FPartly sunny.8 mph81%29.83 "HgN/A
12:50 pm37 °FDrizzle. Partly sunny.9 mph75%29.83 "HgN/A
12:20 pm37 °FPartly sunny.12 mph70%29.86 "HgN/A
11:50 am37 °FPartly sunny.12 mph70%29.86 "HgN/A
11:20 am37 °FPartly sunny.15 mph70%29.86 "HgN/A
10:50 am37 °FPartly sunny.15 mph70%29.86 "HgN/A
10:20 am37 °FPartly sunny.15 mph70%29.89 "HgN/A
9:50 am37 °FPartly sunny.14 mph70%29.89 "HgN/A
9:20 am37 °FPartly sunny.12 mph75%29.89 "HgN/A
8:50 am37 °FPartly sunny.15 mph70%29.89 "HgN/A
8:20 am37 °FPassing clouds.12 mph75%29.89 "HgN/A
7:50 am37 °FPassing clouds.10 mph75%29.89 "HgN/A
7:20 am37 °FOvercast.9 mph75%29.89 "HgN/A
6:50 am37 °FOvercast.16 mph75%29.89 "HgN/A
6:20 am37 °FOvercast.10 mph75%29.89 "HgN/A
5:50 am37 °FOvercast.12 mph75%29.89 "HgN/A
5:20 am37 °FOvercast.10 mph75%29.89 "HgN/A
4:50 am37 °FOvercast.9 mph81%29.92 "HgN/A
4:20 am37 °FOvercast.10 mph81%29.92 "HgN/A
3:50 am37 °FOvercast.10 mph81%29.92 "HgN/A
3:20 am37 °FOvercast.9 mph81%29.95 "HgN/A
2:50 am36 °FOvercast.6 mph93%29.95 "HgN/A
2:20 am36 °FFog.6 mph93%29.95 "Hg5 mi
1:50 am37 °FMostly cloudy.8 mph81%29.98 "HgN/A
1:20 am37 °FFog.8 mph87%29.98 "Hg6 mi
12:50 am37 °FFog.8 mph87%29.98 "Hg6 mi
12:20 am37 °FFog.9 mph87%30.01 "Hg4 mi
11:50 pm
Wed, Dec 2
37 °FFog.8 mph87%30.01 "Hg5 mi
11:20 pm37 °FFog.9 mph87%30.01 "Hg6 mi
10:50 pm37 °FDrizzle. Overcast.12 mph87%30.04 "Hg4 mi
10:20 pm37 °FFog.12 mph87%30.04 "Hg5 mi
9:50 pm37 °FFog.8 mph87%30.04 "Hg5 mi
9:20 pm37 °FFog.8 mph87%30.04 "Hg6 mi
8:50 pm37 °FLight rain. Overcast.8 mph87%30.04 "Hg6 mi
8:20 pm37 °FMostly cloudy.8 mph93%30.07 "HgN/A
7:50 pm37 °FMostly cloudy.6 mph93%30.07 "HgN/A
7:20 pm36 °FFog.3 mph93%30.07 "Hg4 mi
6:50 pm36 °FFog.2 mph93%30.09 "Hg2 mi
6:20 pm36 °FFog.2 mph93%30.09 "Hg2 mi
5:50 pm36 °FFog.No wind93%30.09 "Hg2 mi
5:20 pm36 °FFog.No wind93%30.12 "Hg3 mi
4:50 pm36 °FPassing clouds.3 mph93%30.12 "Hg4 mi
4:20 pm36 °FPassing clouds.3 mph93%30.15 "Hg3 mi
3:50 pm36 °FPassing clouds.3 mph93%30.15 "HgN/A
3:20 pm36 °FPassing clouds.1 mph93%30.15 "HgN/A
Weather by CustomWeather, © 2020

See weather overview